Active alerts

Plymouth County
  Details for Plymouth County Wind Advisory

My webcam more information My webcam


Thunder radar more information blitzortung!


Rain radar more information rain snow radar


Visit our other weather sites:

Template documentation
and downloads

And another site


You find our weather info also at:

Weather Underground

AWEKAS

Citizen Weather Observer Program (CWOP)

HAMweather, WeatherForYou, PWS Weather


 PLYMOUTH COUNTY  -  Wind Advisory Wind Advisory      

Weather Underground History page Text

Daily Summary for November 18, 2017 Units:  English    Metric   Both
« Previous Day
Next Day »
Daily Weekly Monthly Yearly Custom
  Current: High: Low: Average:
Temperature: 42.1 °F 42.1 °F 25.2 °F 29.5 °F
Dew Point: 24.8 °F 25.5 °F 21.9 °F 23.2 °F
Humidity: 50 % 90 % 48 % 78 %
Wind Speed: 0.0 mph 1.0 mph 0.0 mph 0 mph
Wind Gust: 0.0 mph 2.0 mph - -
Wind:Calm - - South
Pressure: 29.96 in 30.03 in 29.96 in -
Precipitation: 0.00 in      
Historical Graphs
 
 
Tabular Data for November 18, 2017
Time Temperature Dew Point Pressure Wind Wind Speed Wind Gust Humidity Rainfall Rate (Hourly)
00:01 31.1 °F 22.8 °F 30.00 in East 0.9 mph 1.0 mph 71 % 0.00 in
00:07 30.9 °F 23.0 °F 30.00 in Calm   1.0 mph 72 % 0.00 in
00:12 30.7 °F 23.2 °F 30.00 in Calm     73 % 0.00 in
00:17 30.7 °F 23.2 °F 30.00 in Calm     73 % 0.00 in
00:22 30.4 °F 22.8 °F 30.00 in Calm     73 % 0.00 in
00:27 30.2 °F 22.6 °F 30.01 in Calm     73 % 0.00 in
00:32 30.0 °F 22.8 °F 30.01 in Calm     74 % 0.00 in
00:42 29.7 °F 23.0 °F 30.01 in Calm     76 % 0.00 in
00:47 29.7 °F 23.4 °F 30.01 in Calm     77 % 0.00 in
00:52 29.7 °F 23.4 °F 30.01 in Calm     77 % 0.00 in
00:57 29.7 °F 23.0 °F 30.01 in Calm   2.0 mph 76 % 0.00 in
01:02 29.7 °F 23.0 °F 30.02 in Calm   1.0 mph 76 % 0.00 in
01:07 29.7 °F 23.0 °F 30.02 in Calm     76 % 0.00 in
01:12 29.7 °F 23.4 °F 30.02 in Calm     77 % 0.00 in
01:17 29.5 °F 22.8 °F 30.03 in Calm     76 % 0.00 in
01:22 29.5 °F 22.5 °F 30.03 in Calm     75 % 0.00 in
01:27 29.5 °F 22.5 °F 30.03 in Calm     75 % 0.00 in
01:32 29.1 °F 22.8 °F 30.03 in Calm     77 % 0.00 in
01:42 28.8 °F 22.5 °F 30.03 in Calm     77 % 0.00 in
01:47 28.6 °F 22.3 °F 30.03 in Calm     77 % 0.00 in
01:52 28.2 °F 21.9 °F 30.03 in Calm     77 % 0.00 in
01:57 28.0 °F 22.1 °F 30.03 in Calm     78 % 0.00 in
02:02 27.9 °F 22.5 °F 30.03 in SW 0.9 mph 1.0 mph 80 % 0.00 in
02:12 27.3 °F 22.6 °F 30.02 in Calm     82 % 0.00 in
02:17 27.3 °F 22.6 °F 30.02 in Calm     82 % 0.00 in
02:22 27.3 °F 22.8 °F 30.02 in Calm     83 % 0.00 in
02:27 27.1 °F 22.6 °F 30.02 in Calm     83 % 0.00 in
02:32 27.0 °F 22.5 °F 30.02 in Calm     83 % 0.00 in
02:37 26.8 °F 22.6 °F 30.02 in Calm     84 % 0.00 in
02:42 26.6 °F 22.6 °F 30.02 in Calm     85 % 0.00 in
02:52 26.2 °F 22.3 °F 30.01 in Calm     85 % 0.00 in
03:02 26.1 °F 22.5 °F 30.02 in Calm     86 % 0.00 in
03:07 26.1 °F 22.5 °F 30.02 in Calm     86 % 0.00 in
03:12 26.1 °F 22.6 °F 30.01 in Calm     87 % 0.00 in
03:17 26.1 °F 22.5 °F 30.01 in Calm     86 % 0.00 in
03:22 25.9 °F 22.3 °F 30.01 in Calm     86 % 0.00 in
03:27 25.9 °F 22.5 °F 30.01 in Calm     87 % 0.00 in
03:32 25.9 °F 22.5 °F 30.00 in Calm     87 % 0.00 in
03:37 25.9 °F 22.5 °F 30.00 in Calm     87 % 0.00 in
03:42 25.9 °F 22.5 °F 30.00 in Calm     87 % 0.00 in
03:52 25.5 °F 22.3 °F 29.99 in Calm     87 % 0.00 in
03:57 25.3 °F 22.3 °F 30.00 in Calm     88 % 0.00 in
04:02 25.5 °F 22.8 °F 30.00 in Calm     89 % 0.00 in
04:07 25.5 °F 22.8 °F 30.00 in Calm     89 % 0.00 in
04:12 25.5 °F 22.8 °F 30.00 in Calm     89 % 0.00 in
04:17 25.5 °F 22.8 °F 29.99 in Calm     89 % 0.00 in
04:22 25.5 °F 22.8 °F 29.99 in Calm     89 % 0.00 in
04:27 25.3 °F 22.6 °F 29.99 in Calm     89 % 0.00 in
04:32 25.3 °F 22.8 °F 30.00 in Calm     90 % 0.00 in
04:37 25.5 °F 23.0 °F 30.01 in Calm   1.0 mph 90 % 0.00 in
04:42 25.5 °F 22.8 °F 30.01 in Calm     89 % 0.00 in
04:52 25.5 °F 22.8 °F 30.00 in Calm     89 % 0.00 in
04:57 25.7 °F 23.0 °F 30.01 in Calm     89 % 0.00 in
05:02 25.9 °F 23.0 °F 30.01 in Calm     89 % 0.00 in
05:07 25.9 °F 23.0 °F 30.01 in Calm     89 % 0.00 in
05:12 25.9 °F 23.0 °F 30.01 in Calm     89 % 0.00 in
05:17 25.9 °F 22.8 °F 30.01 in Calm     88 % 0.00 in
05:22 25.9 °F 22.8 °F 30.01 in Calm     88 % 0.00 in
05:32 25.9 °F 22.8 °F 30.01 in Calm     88 % 0.00 in
05:42 26.2 °F 23.2 °F 30.02 in Calm     88 % 0.00 in
05:47 26.1 °F 22.6 °F 30.01 in Calm     87 % 0.00 in
05:52 26.1 °F 22.6 °F 30.01 in Calm     87 % 0.00 in
05:57 26.1 °F 22.6 °F 30.00 in SW 1.0 mph 1.0 mph 87 % 0.00 in
06:02 26.1 °F 22.5 °F 30.00 in Calm     86 % 0.00 in
06:12 25.7 °F 22.5 °F 30.00 in Calm     87 % 0.00 in
06:22 25.5 °F 22.3 °F 30.01 in Calm     87 % 0.00 in
06:27 25.3 °F 22.1 °F 30.00 in Calm     87 % 0.00 in
06:32 25.3 °F 22.3 °F 30.01 in Calm     88 % 0.00 in
06:37 25.2 °F 22.1 °F 30.01 in Calm     88 % 0.00 in
06:42 25.2 °F 22.5 °F 30.01 in Calm     89 % 0.00 in
06:52 25.2 °F 22.5 °F 30.01 in Calm     89 % 0.00 in
07:02 25.3 °F 22.6 °F 30.01 in Calm     89 % 0.00 in
07:12 26.1 °F 23.2 °F 30.01 in Calm     89 % 0.00 in
07:22 26.8 °F 23.7 °F 30.01 in Calm     88 % 0.00 in
07:32 27.3 °F 23.9 °F 30.02 in Calm     87 % 0.00 in
07:42 27.9 °F 24.3 °F 30.02 in Calm     86 % 0.00 in
07:52 28.9 °F 24.8 °F 30.01 in Calm     84 % 0.00 in
07:57 29.1 °F 25.0 °F 30.01 in Calm     84 % 0.00 in
08:07 30.4 °F 25.5 °F 30.01 in Calm     82 % 0.00 in
08:12 30.7 °F 25.5 °F 30.00 in Calm   1.0 mph 81 % 0.00 in
08:17 31.5 °F 25.3 °F 30.00 in Calm     78 % 0.00 in
08:22 32.0 °F 25.0 °F 29.99 in Calm     75 % 0.00 in
08:32 33.3 °F 25.2 °F 29.99 in Calm     72 % 0.00 in
08:37 33.8 °F 24.4 °F 29.98 in Calm   1.0 mph 68 % 0.00 in
08:42 34.3 °F 24.1 °F 29.98 in Calm     66 % 0.00 in
08:47 35.1 °F 24.1 °F 29.98 in Calm   1.0 mph 64 % 0.00 in
08:52 35.4 °F 24.1 °F 29.98 in Calm     63 % 0.00 in
08:57 36.0 °F 23.9 °F 29.98 in Calm   1.0 mph 61 % 0.00 in
09:02 36.3 °F 24.6 °F 29.98 in Calm     62 % 0.00 in
09:07 36.7 °F 24.4 °F 29.98 in Calm   1.0 mph 61 % 0.00 in
09:12 37.0 °F 25.2 °F 29.98 in Calm     62 % 0.00 in
09:22 37.8 °F 25.2 °F 29.98 in Calm     60 % 0.00 in
09:27 38.3 °F 24.8 °F 29.98 in Calm     58 % 0.00 in
09:32 38.8 °F 24.1 °F 29.97 in Calm     55 % 0.00 in
09:42 39.7 °F 23.2 °F 29.98 in Calm     51 % 0.00 in
09:47 39.9 °F 23.2 °F 29.98 in Calm   1.0 mph 51 % 0.00 in
09:52 40.3 °F 23.2 °F 29.97 in Calm     50 % 0.00 in
09:57 40.5 °F 23.4 °F 29.97 in Calm     50 % 0.00 in
10:02 40.8 °F 23.2 °F 29.97 in Calm   1.0 mph 49 % 0.00 in
10:12 41.2 °F 23.0 °F 29.96 in SSW 0.9 mph 1.0 mph 48 % 0.00 in
10:17 41.5 °F 23.7 °F 29.96 in Calm     49 % 0.00 in
10:22 41.7 °F 23.9 °F 29.96 in Calm     49 % 0.00 in
10:27 42.1 °F 24.8 °F 29.96 in Calm     50 % 0.00 in
West Wareham, MA Weather
Compliments of Weather Underground - 4 mb

Script developed by  Jim McMurry - jmcmurry@mwt.net Adapted for the template by  Wim van der Kuil - Leuven-Template.eu

Equipment we use:

Weather-station
Davis Vantage Vue

Weather-program
Meteobridge

Weather-server
TP-LINK TL-MR3020

Provider
Web Hosting By

Davis Vantage Vue

Meteobridge

TP-LINK TL-MR3020

Web Hosting By